GCLA/SPC METAR and TAF weather

Enter ICAO airport designator
Station Type Date Time Source
GCLA METAR 2018/04/27 01:00 UTC NOAA

GCLA 270100Z AUTO 36009KT 320V030 9999 BKN026/// 17/12 Q1021


Station Type Date Time Source
GCLA Decoded METAR 2018/04/27 01:00 UTC NOAA

La Palma / Aeropuerto, Spain (GCLA) 28-37N 017-45W 31M
Apr 26, 2018 - 09:00 PM EDT / 2018.04.27 0100 UTC
Wind: from the N (360 degrees) at 10 MPH (9 KT) (direction variable):0
Visibility: greater than 7 mile(s):0
Sky conditions: mostly cloudy
Temperature: 62 F (17 C)
Dew Point: 53 F (12 C)
Relative Humidity: 72%
Pressure (altimeter): 30.15 in. Hg (1021 hPa)
ob: GCLA 270100Z AUTO 36009KT 320V030 9999 BKN026/// 17/12 Q1021
cycle: 1

Station Type Date Time Source
GCLA TAF 2018/04/27 00:09 UTC NOAA

TAF
AMD GCLA 270002Z 2700/2721 03014KT 9999 BKN030 TX22/2714Z TN16/2705Z
TEMPO 2700/2709 32007KT


Example: see airport list